Time;durP1;ratioP1;P1;durP2;ratioP2;P2;SDS_P1;SDS_P2;PMS_P1;PMS_P2;Temp;Humidity;BMP_temperature;BMP_pressure;BME280_temperature;BME280_humidity;BME280_pressure;Samples;Min_cycle;Max_cycle;Signal;HPM_P1;HPM_P2
2022/02/18 00:00:19;;;;;;;26.85;4.00;;;7.80;75.20;;;;;;9174577;19;20019;-62
2022/02/18 00:03:25;;;;;;;25.42;3.65;;;7.80;75.30;;;;;;9175355;19;20465;-63
2022/02/18 00:06:30;;;;;;;14.43;2.72;;;7.70;75.20;;;;;;9176119;19;20023;-64
2022/02/18 00:09:35;;;;;;;19.17;2.97;;;7.70;75.30;;;;;;9171400;19;20026;-62
2022/02/18 00:12:40;;;;;;;21.13;3.78;;;7.70;75.40;;;;;;9173460;19;20048;-62
2022/02/18 00:15:48;;;;;;;29.80;3.75;;;7.70;75.40;;;;;;9184449;19;20434;-63
2022/02/18 00:18:53;;;;;;;18.75;3.55;;;7.70;75.50;;;;;;9184370;19;20399;-63
2022/02/18 00:21:58;;;;;;;21.10;3.95;;;7.70;75.60;;;;;;9185087;19;20018;-64
2022/02/18 00:25:03;;;;;;;19.30;3.28;;;7.70;75.60;;;;;;9180042;19;20487;-62
2022/02/18 00:28:09;;;;;;;27.83;3.70;;;7.70;75.70;;;;;;9178594;19;20018;-62
2022/02/18 00:31:17;;;;;;;21.35;3.88;;;7.70;75.70;;;;;;9184076;19;20029;-65
2022/02/18 00:34:22;;;;;;;24.38;4.15;;;7.70;75.80;;;;;;9180666;19;20018;-62
2022/02/18 00:37:27;;;;;;;27.20;4.50;;;7.70;75.80;;;;;;9184462;19;20022;-62
2022/02/18 00:40:33;;;;;;;17.00;3.95;;;7.70;75.80;;;;;;9181349;19;20025;-62
2022/02/18 00:43:38;;;;;;;16.98;3.55;;;7.70;75.90;;;;;;9182676;19;20015;-63
2022/02/18 00:46:46;;;;;;;30.05;4.07;;;7.70;75.90;;;;;;9184647;19;20047;-62
2022/02/18 00:49:51;;;;;;;21.55;3.22;;;7.60;75.90;;;;;;9183033;19;20014;-63
2022/02/18 00:52:56;;;;;;;25.42;4.68;;;7.70;76.00;;;;;;9183654;19;20023;-63
2022/02/18 00:56:01;;;;;;;18.67;4.15;;;7.60;76.00;;;;;;9182488;19;20018;-63
2022/02/18 00:59:06;;;;;;;27.08;3.72;;;7.60;76.00;;;;;;9180640;19;20046;-63
2022/02/18 01:02:13;;;;;;;24.48;4.15;;;7.60;76.10;;;;;;9181772;19;20015;-63
2022/02/18 01:05:18;;;;;;;25.73;3.90;;;7.60;76.10;;;;;;9184294;19;20022;-65
2022/02/18 01:08:23;;;;;;;18.38;2.97;;;7.60;76.20;;;;;;9184659;19;20025;-63
2022/02/18 01:11:28;;;;;;;22.83;3.40;;;7.60;76.20;;;;;;9180592;19;20029;-63
2022/02/18 01:14:33;;;;;;;19.95;3.28;;;7.60;76.20;;;;;;9181212;19;20030;-65
2022/02/18 01:17:41;;;;;;;15.95;3.28;;;7.60;76.30;;;;;;9181752;19;20029;-62
2022/02/18 01:20:46;;;;;;;17.48;3.75;;;7.60;76.30;;;;;;9182356;19;20029;-63
2022/02/18 01:23:53;;;;;;;22.33;3.13;;;7.60;76.30;;;;;;9179037;19;20055;-62
2022/02/18 01:26:59;;;;;;;21.20;2.80;;;7.60;76.30;;;;;;9173811;19;20387;-63
2022/02/18 01:30:06;;;;;;;18.08;3.70;;;7.60;76.40;;;;;;9180200;19;20757;-63
2022/02/18 01:33:14;;;;;;;20.67;3.40;;;7.60;76.40;;;;;;9180489;19;20036;-63
2022/02/18 01:36:19;;;;;;;33.55;4.85;;;7.60;76.50;;;;;;9181967;19;20030;-63
2022/02/18 01:39:24;;;;;;;21.80;4.00;;;7.60;76.50;;;;;;9177363;19;20345;-63
2022/02/18 01:42:29;;;;;;;19.90;3.53;;;7.60;76.50;;;;;;9179805;19;20014;-62
2022/02/18 01:45:34;;;;;;;24.63;3.83;;;7.60;76.60;;;;;;9179887;19;20034;-62
2022/02/18 01:48:44;;;;;;;28.50;4.65;;;7.60;76.60;;;;;;9180445;19;20014;-64
2022/02/18 01:51:49;;;;;;;24.60;4.20;;;7.60;76.70;;;;;;9179904;19;20006;-63
2022/02/18 01:54:54;;;;;;;19.67;3.50;;;7.60;76.70;;;;;;9179818;19;20348;-64
2022/02/18 01:58:02;;;;;;;15.20;3.20;;;7.60;76.80;;;;;;9180302;19;20026;-63
2022/02/18 02:01:09;;;;;;;22.20;3.63;;;7.60;76.80;;;;;;9177806;19;20101;-64
2022/02/18 02:04:17;;;;;;;19.40;3.17;;;7.60;76.90;;;;;;9180662;19;20411;-62
2022/02/18 02:07:22;;;;;;;22.67;5.25;;;7.60;76.90;;;;;;9180920;19;20018;-63
2022/02/18 02:10:27;;;;;;;30.40;4.40;;;7.60;76.90;;;;;;9178116;19;20018;-63
2022/02/18 02:13:44;;;;;;;17.67;4.10;;;7.60;76.90;;;;;;9177708;19;20025;-62
2022/02/18 02:16:57;;;;;;;20.77;3.40;;;7.60;76.90;;;;;;9179832;19;20535;-63
2022/02/18 02:20:08;;;;;;;18.83;2.85;;;7.60;76.90;;;;;;9179485;19;20086;-63
2022/02/18 02:23:18;;;;;;;20.10;3.75;;;7.60;77.00;;;;;;9179909;19;20024;-62
2022/02/18 02:26:24;;;;;;;23.02;4.38;;;7.60;77.00;;;;;;9172486;19;20029;-62
2022/02/18 02:29:29;;;;;;;18.88;3.50;;;7.60;77.00;;;;;;9177267;19;20099;-64
2022/02/18 02:32:34;;;;;;;20.77;3.42;;;7.60;77.00;;;;;;9179111;19;20029;-62
2022/02/18 02:35:39;;;;;;;28.80;4.07;;;7.60;77.10;;;;;;9176658;19;20017;-61
2022/02/18 02:38:48;;;;;;;17.23;3.17;;;7.50;77.10;;;;;;9175842;19;20022;-61
2022/02/18 02:41:56;;;;;;;18.73;3.58;;;7.60;77.20;;;;;;9176287;19;20053;-61
2022/02/18 02:45:01;;;;;;;19.02;3.10;;;7.60;77.20;;;;;;9177763;19;20014;-63
2022/02/18 02:48:08;;;;;;;24.23;3.78;;;7.60;77.20;;;;;;9178576;19;20110;-64
2022/02/18 02:51:42;;;;;;;14.57;2.65;;;7.60;77.20;;;;;;9177321;19;20049;-63
2022/02/18 02:54:50;;;;;;;21.58;3.75;;;7.60;77.30;;;;;;9174378;19;20022;-63
2022/02/18 02:57:55;;;;;;;14.32;3.20;;;7.60;77.30;;;;;;9176308;19;20519;-63
2022/02/18 03:01:00;;;;;;;22.20;3.30;;;7.50;77.30;;;;;;9177805;19;20025;-62
2022/02/18 03:04:13;;;;;;;14.38;2.97;;;7.60;77.40;;;;;;9177394;19;20022;-62
2022/02/18 03:07:19;;;;;;;16.50;2.90;;;7.60;77.40;;;;;;9178054;19;20022;-65
2022/02/18 03:10:41;;;;;;;19.38;3.35;;;7.60;77.40;;;;;;9175254;19;20094;-62
2022/02/18 03:13:54;;;;;;;19.27;3.70;;;7.60;77.50;;;;;;9174939;19;20131;-62
2022/02/18 03:17:00;;;;;;;14.88;3.20;;;7.60;77.50;;;;;;9177024;19;20011;-62
2022/02/18 03:20:07;;;;;;;33.35;4.05;;;7.60;77.50;;;;;;9178973;19;20030;-63
2022/02/18 03:23:13;;;;;;;23.40;3.00;;;7.60;77.60;;;;;;9177539;19;20021;-63
2022/02/18 03:26:21;;;;;;;16.80;2.97;;;7.60;77.60;;;;;;9170613;19;20059;-63
2022/02/18 03:29:38;;;;;;;18.33;3.65;;;7.60;77.70;;;;;;9174086;19;20048;-62
2022/02/18 03:32:51;;;;;;;19.38;2.80;;;7.60;77.70;;;;;;9175335;19;20023;-63
2022/02/18 03:36:01;;;;;;;25.90;4.00;;;7.60;77.70;;;;;;9174784;19;20014;-63
2022/02/18 03:39:09;;;;;;;15.77;3.80;;;7.60;77.70;;;;;;9180156;19;20011;-63
2022/02/18 03:42:19;;;;;;;20.63;3.42;;;7.60;77.80;;;;;;9175765;19;20023;-62
2022/02/18 03:45:28;;;;;;;23.52;3.63;;;7.70;77.90;;;;;;9172489;19;20015;-63
2022/02/18 03:48:33;;;;;;;22.10;4.80;;;7.60;77.90;;;;;;9177451;19;20022;-63
2022/02/18 03:51:40;;;;;;;21.65;4.10;;;7.70;78.00;;;;;;9184398;19;20025;-61
2022/02/18 03:54:45;;;;;;;21.15;3.10;;;7.60;77.90;;;;;;9184981;19;20030;-62
2022/02/18 03:57:54;;;;;;;19.30;3.30;;;7.60;78.00;;;;;;9187485;19;20048;-63
2022/02/18 04:01:03;;;;;;;30.15;4.68;;;7.70;78.10;;;;;;9181719;19;20040;-63
2022/02/18 04:04:08;;;;;;;17.88;3.97;;;7.70;78.10;;;;;;9182585;19;20010;-62
2022/02/18 04:07:19;;;;;;;22.38;3.55;;;7.70;78.10;;;;;;9185661;19;20019;-62
2022/02/18 04:10:32;;;;;;;26.63;4.28;;;7.70;78.10;;;;;;9183751;19;20022;-64
2022/02/18 04:13:48;;;;;;;14.18;2.95;;;7.70;78.20;;;;;;9185289;19;20014;-62
2022/02/18 04:16:53;;;;;;;18.05;5.60;;;7.70;78.20;;;;;;9181175;19;20042;-62
2022/02/18 04:20:01;;;;;;;17.95;3.90;;;7.70;78.20;;;;;;9182436;19;21034;-62
2022/02/18 04:23:30;;;;;;;25.23;5.35;;;7.70;78.20;;;;;;9181724;19;20036;-63
2022/02/18 04:26:36;;;;;;;23.70;4.82;;;7.70;78.30;;;;;;9179160;19;20015;-63
2022/02/18 04:29:43;;;;;;;25.65;5.22;;;7.80;78.30;;;;;;9185800;19;20014;-62
2022/02/18 04:32:49;;;;;;;23.95;5.50;;;7.80;78.40;;;;;;9181057;19;20014;-63
2022/02/18 04:35:54;;;;;;;26.20;5.45;;;7.80;78.50;;;;;;9182255;19;20014;-63
2022/02/18 04:38:59;;;;;;;19.67;4.85;;;7.80;78.60;;;;;;9184546;19;20584;-62
2022/02/18 04:42:04;;;;;;;22.70;5.28;;;7.80;78.50;;;;;;9184670;19;20014;-62
2022/02/18 04:45:13;;;;;;;28.67;6.95;;;7.80;78.60;;;;;;9186179;19;20018;-62
2022/02/18 04:48:18;;;;;;;24.88;5.53;;;7.90;78.80;;;;;;9179912;19;20010;-63
2022/02/18 04:51:24;;;;;;;25.70;6.35;;;7.90;78.80;;;;;;9180372;19;20018;-65
2022/02/18 04:54:30;;;;;;;29.95;5.13;;;7.90;78.80;;;;;;9182574;19;20025;-64
2022/02/18 04:57:35;;;;;;;31.65;4.85;;;7.90;78.80;;;;;;9182786;19;20769;-64
2022/02/18 05:00:42;;;;;;;24.77;5.45;;;7.90;78.80;;;;;;9183519;19;20018;-64
2022/02/18 05:03:48;;;;;;;37.05;5.45;;;7.90;78.90;;;;;;9179236;19;20025;-65
2022/02/18 05:06:53;;;;;;;26.02;4.82;;;8.00;78.90;;;;;;9181184;19;20487;-64
2022/02/18 05:09:58;;;;;;;26.67;5.22;;;8.00;78.90;;;;;;9181832;19;20021;-63
2022/02/18 05:13:03;;;;;;;22.83;4.55;;;8.00;78.90;;;;;;9181966;19;20467;-63
2022/02/18 05:16:10;;;;;;;28.13;5.38;;;8.00;78.90;;;;;;9183130;19;20006;-64
2022/02/18 05:19:15;;;;;;;26.13;4.72;;;8.00;79.00;;;;;;9180829;19;20018;-62
2022/02/18 05:22:20;;;;;;;17.60;3.78;;;8.00;79.00;;;;;;9179885;19;20015;-63
2022/02/18 05:25:25;;;;;;;31.13;5.53;;;8.00;79.00;;;;;;9180527;19;20014;-63
2022/02/18 05:28:30;;;;;;;28.30;5.95;;;8.10;79.10;;;;;;9176941;19;20015;-62
2022/02/18 05:31:38;;;;;;;25.52;4.38;;;8.10;79.10;;;;;;9181297;19;20052;-63
2022/02/18 05:34:49;;;;;;;26.90;4.57;;;8.10;79.10;;;;;;9179776;19;20011;-64
2022/02/18 05:37:54;;;;;;;21.10;4.63;;;8.10;79.10;;;;;;9179232;19;20700;-63
2022/02/18 05:40:59;;;;;;;30.17;5.30;;;8.10;79.10;;;;;;9181250;19;20023;-64
2022/02/18 05:44:04;;;;;;;21.42;4.80;;;8.10;79.20;;;;;;9180088;19;20385;-63
2022/02/18 05:47:11;;;;;;;26.65;4.63;;;8.10;79.20;;;;;;9183244;19;20015;-62
2022/02/18 05:50:16;;;;;;;26.90;4.60;;;8.10;79.30;;;;;;9177701;19;20483;-63
2022/02/18 05:53:22;;;;;;;24.40;3.65;;;8.10;79.20;;;;;;9178466;19;20472;-63
2022/02/18 05:56:29;;;;;;;26.88;4.43;;;8.10;79.20;;;;;;9180318;19;20018;-63
2022/02/18 05:59:34;;;;;;;24.75;5.18;;;8.10;79.30;;;;;;9181333;19;20022;-64
2022/02/18 06:02:43;;;;;;;24.92;4.75;;;8.20;79.30;;;;;;9179696;19;20022;-62
2022/02/18 06:05:48;;;;;;;30.38;5.80;;;8.20;79.40;;;;;;9179164;19;20030;-62
2022/02/18 06:08:53;;;;;;;25.38;4.43;;;8.10;79.50;;;;;;9180229;19;20041;-63
2022/02/18 06:11:58;;;;;;;30.90;5.63;;;8.20;79.40;;;;;;9179669;19;20028;-63
2022/02/18 06:15:03;;;;;;;32.28;5.22;;;8.20;79.40;;;;;;9182012;19;20029;-65
2022/02/18 06:18:11;;;;;;;27.58;5.38;;;8.10;79.50;;;;;;9177821;19;20054;-64
2022/02/18 06:21:16;;;;;;;31.63;5.10;;;8.10;79.50;;;;;;9178780;19;20015;-63
2022/02/18 06:24:21;;;;;;;38.08;5.38;;;8.10;79.50;;;;;;9178246;19;20018;-63
2022/02/18 06:27:26;;;;;;;28.48;5.43;;;8.10;79.50;;;;;;9174897;19;20056;-64
2022/02/18 06:30:31;;;;;;;24.15;3.78;;;8.20;79.60;;;;;;9181772;19;20026;-62
2022/02/18 06:33:40;;;;;;;32.22;4.55;;;8.10;79.60;;;;;;9176805;19;20363;-64
2022/02/18 06:36:46;;;;;;;24.13;4.97;;;8.10;79.60;;;;;;9178868;19;20014;-64
2022/02/18 06:39:51;;;;;;;21.63;4.57;;;8.20;79.70;;;;;;9177427;19;20279;-62
2022/02/18 06:42:56;;;;;;;21.98;4.43;;;8.20;79.70;;;;;;9178809;19;20038;-64
2022/02/18 06:46:01;;;;;;;29.50;5.80;;;8.20;79.70;;;;;;9180675;19;20026;-62
2022/02/18 06:49:09;;;;;;;28.65;5.07;;;8.20;79.80;;;;;;9178700;19;20046;-63
2022/02/18 06:52:14;;;;;;;25.33;4.47;;;8.20;79.80;;;;;;9176712;19;20014;-63
2022/02/18 06:55:22;;;;;;;35.15;5.40;;;8.20;79.80;;;;;;9175711;19;20022;-63
2022/02/18 06:58:27;;;;;;;23.65;4.22;;;8.30;79.90;;;;;;9177196;19;20023;-63
2022/02/18 07:01:32;;;;;;;35.50;5.07;;;8.20;79.90;;;;;;9179272;19;20023;-63
2022/02/18 07:04:40;;;;;;;26.58;4.88;;;8.20;80.00;;;;;;9175893;19;20022;-64
2022/02/18 07:07:45;;;;;;;34.95;5.07;;;8.20;80.00;;;;;;9172439;19;20495;-63
2022/02/18 07:10:50;;;;;;;33.47;6.50;;;8.20;80.00;;;;;;9176033;19;20377;-63
2022/02/18 07:13:55;;;;;;;31.85;5.50;;;8.30;80.10;;;;;;9173571;19;20052;-63
2022/02/18 07:17:00;;;;;;;44.08;7.10;;;8.30;80.10;;;;;;9173530;19;20018;-64
2022/02/18 07:20:12;;;;;;;32.35;5.68;;;8.30;80.20;;;;;;9175014;19;20018;-63
2022/02/18 07:23:18;;;;;;;37.65;6.07;;;8.30;80.20;;;;;;9177701;19;20610;-65
2022/02/18 07:26:23;;;;;;;36.22;6.40;;;8.30;80.20;;;;;;9180996;19;20022;-66
2022/02/18 07:29:28;;;;;;;34.05;5.47;;;8.30;80.20;;;;;;9189492;19;20025;-64
2022/02/18 07:32:36;;;;;;;37.88;6.55;;;8.30;80.20;;;;;;9188193;19;20426;-64
2022/02/18 07:35:44;;;;;;;31.25;6.63;;;8.30;80.20;;;;;;9183573;19;20011;-62
2022/02/18 07:38:49;;;;;;;26.27;5.65;;;8.40;80.40;;;;;;9184465;19;20526;-64
2022/02/18 07:41:54;;;;;;;31.77;6.53;;;8.40;80.30;;;;;;9185499;19;20060;-63
2022/02/18 07:45:06;;;;;;;28.85;4.57;;;8.40;80.30;;;;;;9184737;19;20029;-64
2022/02/18 07:48:11;;;;;;;24.52;4.18;;;8.40;80.30;;;;;;9186380;19;20022;-63
2022/02/18 07:51:19;;;;;;;35.00;5.93;;;8.40;80.40;;;;;;9182153;19;20529;-63
2022/02/18 07:54:24;;;;;;;29.27;4.80;;;8.40;80.40;;;;;;9183308;19;20365;-63
2022/02/18 07:57:29;;;;;;;33.78;5.15;;;8.40;80.40;;;;;;9182648;19;20006;-63
2022/02/18 08:00:34;;;;;;;30.83;4.97;;;8.40;80.40;;;;;;9186723;19;20017;-66
2022/02/18 08:03:39;;;;;;;27.67;5.45;;;8.50;80.50;;;;;;9186745;19;20044;-63
2022/02/18 08:06:47;;;;;;;30.60;4.68;;;8.50;80.50;;;;;;9182396;19;20492;-64
2022/02/18 08:09:52;;;;;;;25.98;4.10;;;8.50;80.50;;;;;;9184289;19;20020;-64
2022/02/18 08:12:57;;;;;;;23.05;4.03;;;8.50;80.50;;;;;;9184687;19;20356;-63
2022/02/18 08:16:02;;;;;;;28.92;4.60;;;8.50;80.50;;;;;;9184779;19;20023;-64
2022/02/18 08:19:08;;;;;;;24.50;5.20;;;8.50;80.60;;;;;;9184906;19;20021;-62
2022/02/18 08:22:17;;;;;;;16.15;3.40;;;8.60;80.70;;;;;;9183684;19;20010;-63
2022/02/18 08:25:22;;;;;;;22.65;4.15;;;8.60;80.80;;;;;;9181544;19;20033;-64
2022/02/18 08:28:27;;;;;;;22.90;4.38;;;8.60;80.80;;;;;;9178274;19;20022;-64
2022/02/18 08:31:32;;;;;;;24.58;4.22;;;8.60;80.90;;;;;;9184667;19;20026;-62
2022/02/18 08:34:37;;;;;;;18.23;4.25;;;8.60;80.90;;;;;;9183297;19;20042;-64
2022/02/18 08:37:49;;;;;;;22.10;4.15;;;8.60;80.90;;;;;;9182818;19;20022;-63
2022/02/18 08:40:55;;;;;;;22.13;5.13;;;8.60;81.00;;;;;;9181903;19;20029;-63
2022/02/18 08:44:00;;;;;;;16.63;4.25;;;8.70;81.00;;;;;;9184722;19;20026;-63
2022/02/18 08:47:06;;;;;;;17.20;4.30;;;8.70;81.10;;;;;;9183845;19;20107;-63
2022/02/18 08:50:12;;;;;;;21.13;3.65;;;8.70;81.10;;;;;;9182506;19;20022;-63
2022/02/18 08:53:20;;;;;;;19.80;3.58;;;8.70;81.20;;;;;;9179930;19;20385;-64
2022/02/18 08:56:27;;;;;;;18.23;4.15;;;8.70;81.20;;;;;;9178432;19;20023;-63
2022/02/18 08:59:32;;;;;;;32.05;4.57;;;8.70;81.30;;;;;;9184477;19;20018;-63
2022/02/18 09:02:38;;;;;;;31.38;4.50;;;8.70;81.30;;;;;;9184353;19;20018;-64
2022/02/18 09:05:43;;;;;;;20.25;4.57;;;8.70;81.40;;;;;;9182439;19;20021;-64
2022/02/18 09:08:51;;;;;;;14.05;3.83;;;8.70;81.50;;;;;;9181552;19;20373;-63
2022/02/18 09:11:56;;;;;;;23.25;5.18;;;8.70;81.60;;;;;;9180792;19;20014;-65
2022/02/18 09:15:01;;;;;;;20.50;4.35;;;8.80;81.70;;;;;;9182486;19;20014;-63
2022/02/18 09:18:09;;;;;;;17.65;4.75;;;8.80;81.80;;;;;;9175734;19;20483;-64
2022/02/18 09:21:15;;;;;;;20.10;3.95;;;8.90;81.90;;;;;;9181227;19;20011;-64
2022/02/18 09:24:39;;;;;;;24.50;4.72;;;8.90;81.90;;;;;;9180727;19;20606;-63
2022/02/18 09:27:44;;;;;;;15.48;4.18;;;8.90;82.00;;;;;;9173742;19;20011;-68
2022/02/18 09:30:51;;;;;;;20.83;4.00;;;9.00;82.00;;;;;;9176826;19;20026;-65
2022/02/18 09:33:56;;;;;;;18.90;3.42;;;9.00;82.10;;;;;;9175163;19;20351;-63
2022/02/18 09:37:03;;;;;;;20.02;4.22;;;9.00;82.20;;;;;;9168574;19;20029;-63
2022/02/18 09:40:14;;;;;;;16.92;3.63;;;9.10;82.20;;;;;;9172190;19;20471;-64
2022/02/18 09:43:21;;;;;;;16.48;3.55;;;9.10;82.30;;;;;;9172000;19;20042;-64
2022/02/18 09:46:26;;;;;;;17.77;4.50;;;9.20;82.40;;;;;;9170593;19;20053;-63
2022/02/18 09:49:33;;;;;;;21.30;3.30;;;9.20;82.40;;;;;;9173876;19;20022;-64
2022/02/18 09:52:39;;;;;;;22.80;4.38;;;9.20;82.40;;;;;;9173495;19;20018;-63
2022/02/18 09:55:48;;;;;;;18.25;3.53;;;9.30;82.50;;;;;;9171608;19;20014;-63
2022/02/18 09:58:54;;;;;;;12.80;2.70;;;9.30;82.60;;;;;;9171631;19;20030;-62
2022/02/18 10:01:59;;;;;;;15.85;3.33;;;9.30;83.20;;;;;;9171937;19;20054;-63
2022/02/18 10:05:04;;;;;;;17.33;3.53;;;9.40;82.70;;;;;;9173110;19;20033;-64
2022/02/18 10:08:11;;;;;;;12.63;3.08;;;9.40;82.70;;;;;;9171100;19;20021;-62
2022/02/18 10:11:20;;;;;;;15.15;2.85;;;9.40;82.80;;;;;;9168064;19;20028;-63
2022/02/18 10:14:25;;;;;;;11.77;3.22;;;9.50;82.90;;;;;;9166845;19;20025;-63
2022/02/18 10:17:39;;;;;;;13.43;2.60;;;9.50;82.90;;;;;;9167179;19;20018;-64
2022/02/18 10:20:47;;;;;;;16.77;3.10;;;9.50;83.10;;;;;;9169810;19;20015;-62
2022/02/18 10:23:53;;;;;;;14.52;2.97;;;9.60;83.00;;;;;;9170072;19;20052;-63
2022/02/18 10:27:02;;;;;;;12.73;2.28;;;9.70;83.10;;;;;;9171676;19;20006;-63
2022/02/18 10:30:22;;;;;;;19.48;3.50;;;9.70;83.10;;;;;;9178001;19;20356;-62
2022/02/18 10:33:28;;;;;;;12.55;2.80;;;9.80;83.10;;;;;;9170708;19;20019;-61
2022/02/18 10:36:44;;;;;;;13.95;2.85;;;9.80;83.10;;;;;;9176927;19;20379;-62
2022/02/18 10:40:08;;;;;;;9.60;2.80;;;9.80;83.30;;;;;;9174674;19;20022;-62
2022/02/18 10:43:18;;;;;;;19.83;2.53;;;9.90;83.40;;;;;;9178403;19;20019;-64
2022/02/18 10:46:24;;;;;;;9.60;2.88;;;9.90;83.30;;;;;;9172936;19;20019;-65
2022/02/18 10:49:33;;;;;;;10.90;2.05;;;10.00;83.30;;;;;;9168221;19;20019;-62
2022/02/18 10:52:38;;;;;;;10.50;2.28;;;10.00;83.40;;;;;;9171866;19;20022;-65
2022/02/18 10:55:51;;;;;;;11.15;2.58;;;10.00;83.40;;;;;;9173779;19;20010;-61
2022/02/18 10:58:58;;;;;;;9.05;1.90;;;10.10;83.70;;;;;;9174437;19;20018;-63
2022/02/18 11:02:04;;;;;;;10.90;2.42;;;10.10;83.60;;;;;;9176930;19;20044;-63
2022/02/18 11:05:25;;;;;;;10.95;2.15;;;10.20;83.70;;;;;;9177209;19;20033;-63
2022/02/18 11:08:33;;;;;;;6.60;2.03;;;10.30;84.00;;;;;;9176747;19;20458;-64
2022/02/18 11:11:40;;;;;;;8.27;2.10;;;10.30;83.80;;;;;;9177180;19;20014;-62
2022/02/18 11:14:51;;;;;;;5.22;1.70;;;10.30;83.80;;;;;;9177002;19;20058;-64
2022/02/18 11:17:59;;;;;;;6.88;1.98;;;10.40;84.00;;;;;;9176348;19;20006;-62
2022/02/18 11:21:04;;;;;;;9.43;1.95;;;10.40;84.00;;;;;;9176314;19;20022;-64
2022/02/18 11:24:10;;;;;;;5.93;1.73;;;10.50;84.00;;;;;;9177666;19;20022;-62
2022/02/18 11:27:16;;;;;;;7.05;1.55;;;10.60;84.10;;;;;;9169889;19;20038;-64
2022/02/18 11:30:24;;;;;;;3.97;1.50;;;10.60;84.10;;;;;;9173729;19;20478;-63
2022/02/18 11:33:42;;;;;;;6.00;1.67;;;10.70;84.20;;;;;;9174672;19;20563;-63
2022/02/18 11:37:29;;;;;;;7.03;1.23;;;10.70;84.30;;;;;;9171128;19;20022;-63
2022/02/18 11:40:48;;;;;;;3.33;1.10;;;10.80;84.40;;;;;;9171663;19;20041;-63
2022/02/18 11:43:56;;;;;;;3.95;0.98;;;10.80;84.30;;;;;;9175563;19;20018;-63
2022/02/18 11:47:20;;;;;;;2.03;1.08;;;10.90;84.30;;;;;;9173948;19;20025;-66
2022/02/18 11:50:29;;;;;;;1.20;1.00;;;11.00;84.60;;;;;;9173597;19;20023;-63
2022/02/18 11:53:43;;;;;;;2.15;1.00;;;11.00;84.50;;;;;;9170730;19;20015;-63
2022/02/18 11:56:54;;;;;;;1.43;1.23;;;11.10;84.60;;;;;;9167124;19;20019;-63
2022/02/18 12:00:01;;;;;;;1.63;1.13;;;11.20;84.50;;;;;;9168696;19;20034;-62
2022/02/18 12:03:21;;;;;;;3.15;1.23;;;11.20;84.60;;;;;;9168326;19;20462;-64
2022/02/18 12:06:26;;;;;;;1.83;1.20;;;11.30;84.60;;;;;;9170959;19;20018;-63
2022/02/18 12:09:54;;;;;;;1.85;1.02;;;11.30;84.60;;;;;;9172495;19;20011;-66
2022/02/18 12:13:05;;;;;;;2.75;1.20;;;11.40;84.80;;;;;;9177282;19;20022;-63
2022/02/18 12:16:10;;;;;;;1.10;1.00;;;11.50;84.70;;;;;;9175152;19;20022;-65
2022/02/18 12:19:27;;;;;;;1.45;0.90;;;11.50;84.60;;;;;;9180302;19;20361;-64
2022/02/18 12:22:37;;;;;;;1.48;1.02;;;11.60;84.80;;;;;;9183689;19;20497;-64
2022/02/18 12:25:45;;;;;;;1.02;0.80;;;11.60;84.70;;;;;;9183783;19;20037;-62
2022/02/18 12:28:50;;;;;;;1.20;1.10;;;11.70;84.70;;;;;;9184806;19;20348;-63
2022/02/18 12:32:00;;;;;;;1.95;0.73;;;11.70;84.70;;;;;;9179215;19;20017;-69
2022/02/18 12:35:12;;;;;;;1.77;0.85;;;11.70;84.70;;;;;;9177639;19;20807;-65
2022/02/18 12:38:17;;;;;;;0.75;0.70;;;11.80;84.80;;;;;;9178262;19;20014;-62
2022/02/18 12:41:22;;;;;;;1.05;0.73;;;11.80;84.70;;;;;;9175350;19;20038;-64
2022/02/18 12:44:27;;;;;;;0.98;0.88;;;11.90;85.40;;;;;;9179465;19;20472;-64
2022/02/18 12:47:34;;;;;;;3.65;0.70;;;11.90;84.80;;;;;;9174995;19;20029;-65
2022/02/18 12:50:44;;;;;;;1.45;0.90;;;12.00;84.80;;;;;;9176814;19;20028;-67
2022/02/18 12:53:49;;;;;;;1.25;0.70;;;12.00;84.90;;;;;;9175024;19;20025;-63
2022/02/18 12:56:55;;;;;;;1.48;0.80;;;12.00;84.80;;;;;;9175287;19;20054;-66
2022/02/18 13:00:00;;;;;;;0.70;0.70;;;12.00;84.80;;;;;;9174494;19;20123;-67
2022/02/18 13:03:08;;;;;;;1.85;0.70;;;12.10;84.80;;;;;;9175930;19;20010;-65
2022/02/18 13:06:15;;;;;;;0.82;0.70;;;12.00;84.80;;;;;;9173196;19;20022;-63
2022/02/18 13:09:20;;;;;;;0.68;0.63;;;12.10;84.90;;;;;;9173710;19;20029;-64
2022/02/18 13:12:25;;;;;;;2.20;0.68;;;12.10;84.80;;;;;;9176357;19;20018;-64
2022/02/18 13:15:32;;;;;;;1.70;0.70;;;12.20;84.90;;;;;;9174619;19;20018;-64
2022/02/18 13:18:40;;;;;;;1.13;0.52;;;12.20;84.90;;;;;;9175718;19;20591;-65
2022/02/18 13:21:50;;;;;;;3.05;0.63;;;12.20;84.90;;;;;;9172853;19;20464;-65
2022/02/18 13:24:55;;;;;;;2.38;0.60;;;12.30;85.00;;;;;;9173964;19;20811;-64
2022/02/18 13:28:02;;;;;;;0.50;0.40;;;12.30;84.90;;;;;;9171325;19;20115;-63
2022/02/18 13:31:09;;;;;;;0.43;0.35;;;12.30;84.90;;;;;;9176714;19;20456;-64
2022/02/18 13:34:14;;;;;;;0.45;0.38;;;12.30;84.90;;;;;;9174809;19;21004;-64
2022/02/18 13:37:22;;;;;;;1.98;0.40;;;12.40;84.90;;;;;;9173147;19;20019;-63
2022/02/18 13:40:29;;;;;;;1.35;0.47;;;12.40;84.90;;;;;;9173717;19;20022;-65
2022/02/18 13:43:36;;;;;;;1.63;0.70;;;12.40;84.80;;;;;;9174516;19;20086;-62
2022/02/18 13:46:43;;;;;;;0.60;0.40;;;12.50;84.90;;;;;;9177948;19;20467;-63
2022/02/18 13:49:48;;;;;;;1.77;0.60;;;12.50;84.90;;;;;;9174802;19;20019;-65
2022/02/18 13:52:57;;;;;;;3.42;0.82;;;12.50;84.70;;;;;;9171403;19;20022;-62
2022/02/18 13:56:26;;;;;;;2.50;0.80;;;12.50;84.60;;;;;;9172527;19;20059;-63
2022/02/18 13:59:31;;;;;;;4.30;0.60;;;12.40;84.30;;;;;;9173966;19;20030;-62
2022/02/18 14:02:36;;;;;;;5.05;0.77;;;12.30;84.10;;;;;;9176158;19;20015;-61
2022/02/18 14:05:41;;;;;;;3.53;0.65;;;12.30;84.00;;;;;;9175291;19;20014;-63
2022/02/18 14:08:57;;;;;;;3.15;0.68;;;12.20;83.90;;;;;;9168477;19;20033;-63
2022/02/18 14:12:03;;;;;;;4.35;0.70;;;12.10;83.90;;;;;;9167827;19;20025;-63
2022/02/18 14:15:10;;;;;;;3.00;0.77;;;12.00;83.90;;;;;;9170836;19;20371;-62
2022/02/18 14:18:17;;;;;;;5.03;0.95;;;12.00;83.80;;;;;;9169099;19;20015;-63
2022/02/18 14:21:23;;;;;;;2.22;0.75;;;11.90;83.50;;;;;;9171388;19;20018;-64
2022/02/18 14:24:43;;;;;;;3.55;0.80;;;11.80;83.30;;;;;;9169840;19;20015;-62
2022/02/18 14:27:48;;;;;;;2.75;0.88;;;11.70;83.10;;;;;;9164101;19;20521;-64
2022/02/18 14:30:58;;;;;;;8.90;0.93;;;11.60;83.00;;;;;;9169448;19;20022;-68
2022/02/18 14:34:05;;;;;;;4.28;0.98;;;11.50;82.80;;;;;;9169140;19;20022;-62
2022/02/18 14:37:10;;;;;;;2.50;1.02;;;11.40;82.90;;;;;;9172199;19;20391;-64
2022/02/18 14:40:21;;;;;;;9.23;1.23;;;11.30;82.90;;;;;;9167275;19;20022;-62
2022/02/18 14:43:26;;;;;;;6.88;1.13;;;11.20;82.80;;;;;;9168180;19;20014;-64
2022/02/18 14:46:31;;;;;;;9.77;1.10;;;11.20;82.80;;;;;;9169411;19;20022;-62
2022/02/18 14:49:36;;;;;;;7.63;1.35;;;11.10;82.70;;;;;;9168277;19;20766;-65
2022/02/18 14:52:41;;;;;;;5.90;2.13;;;11.10;82.60;;;;;;9169312;19;20887;-65
2022/02/18 14:55:49;;;;;;;10.43;1.80;;;11.10;82.70;;;;;;9166048;19;20022;-64
2022/02/18 14:58:55;;;;;;;6.07;1.40;;;11.00;82.60;;;;;;9168003;19;20479;-66
2022/02/18 15:02:00;;;;;;;4.32;1.27;;;11.00;82.50;;;;;;9168157;19;20018;-64
2022/02/18 15:05:06;;;;;;;8.32;1.60;;;10.90;82.50;;;;;;9170699;19;20018;-64
2022/02/18 15:08:12;;;;;;;12.15;1.77;;;11.00;82.50;;;;;;9169473;19;20372;-64
2022/02/18 15:11:20;;;;;;;13.88;2.45;;;10.90;82.40;;;;;;9163397;19;20687;-62
2022/02/18 15:14:25;;;;;;;6.90;1.60;;;10.90;82.30;;;;;;9160287;19;20018;-66
2022/02/18 15:17:31;;;;;;;13.15;2.38;;;10.90;82.20;;;;;;9166634;19;20018;-63
2022/02/18 15:20:36;;;;;;;11.98;2.10;;;11.00;82.10;;;;;;9159965;19;20018;-62
2022/02/18 15:23:41;;;;;;;13.93;2.75;;;11.00;82.00;;;;;;9166138;19;20026;-63
2022/02/18 15:26:48;;;;;;;23.15;3.00;;;11.00;81.80;;;;;;9164374;19;20368;-63
2022/02/18 15:36:45;;;;;;;14.25;2.47;;;10.90;81.30;;;;;;9167605;19;20398;-62
2022/02/18 15:43:14;;;;;;;17.10;2.90;;;10.90;81.00;;;;;;9164469;19;20018;-62
2022/02/18 15:46:19;;;;;;;14.10;3.15;;;11.00;80.80;;;;;;9172124;19;20017;-62
2022/02/18 15:49:24;;;;;;;15.73;2.75;;;11.00;80.70;;;;;;9175040;19;20018;-62
2022/02/18 15:52:29;;;;;;;12.57;2.95;;;10.90;80.60;;;;;;9173131;19;20453;-62
2022/02/18 15:55:35;;;;;;;16.05;2.92;;;10.90;80.40;;;;;;9175272;19;20014;-62
2022/02/18 15:58:43;;;;;;;24.88;3.55;;;11.00;80.30;;;;;;9175291;19;20014;-64
2022/02/18 16:01:51;;;;;;;20.05;3.58;;;11.00;80.10;;;;;;9172148;19;20018;-64
2022/02/18 16:04:59;;;;;;;11.98;3.15;;;11.00;79.90;;;;;;9170624;19;20058;-66
2022/02/18 16:08:04;;;;;;;18.73;2.88;;;11.00;79.70;;;;;;9175058;19;20015;-66
2022/02/18 16:11:12;;;;;;;23.70;3.10;;;11.00;79.60;;;;;;9174311;19;20026;-65
2022/02/18 16:14:20;;;;;;;17.55;2.88;;;11.00;79.40;;;;;;9174393;19;20022;-65
2022/02/18 16:17:25;;;;;;;17.17;3.28;;;11.00;79.10;;;;;;9170694;19;20010;-65
2022/02/18 16:20:30;;;;;;;15.80;2.88;;;11.00;79.10;;;;;;9173789;19;20024;-66
2022/02/18 16:23:35;;;;;;;18.23;2.70;;;11.00;79.50;;;;;;9172287;19;20030;-63